sensor_id;sensor_type;location;lat;lon;timestamp;P1;durP1;ratioP1;P2;durP2;ratioP2
42586;SDS011;28216;53.362;-6.288;2023-06-22T00:01:30;5.38;;;3.80;;
42586;SDS011;28216;53.362;-6.288;2023-06-22T00:03:56;5.15;;;3.78;;
42586;SDS011;28216;53.362;-6.288;2023-06-22T00:06:26;4.82;;;3.70;;
42586;SDS011;28216;53.362;-6.288;2023-06-22T00:09:01;5.93;;;3.92;;
42586;SDS011;28216;53.362;-6.288;2023-06-22T00:11:30;4.78;;;3.58;;
42586;SDS011;28216;53.362;-6.288;2023-06-22T00:14:00;5.07;;;3.75;;
42586;SDS011;28216;53.362;-6.288;2023-06-22T00:16:26;4.93;;;3.78;;
42586;SDS011;28216;53.362;-6.288;2023-06-22T00:19:04;4.78;;;3.72;;
42586;SDS011;28216;53.362;-6.288;2023-06-22T00:21:47;6.20;;;4.18;;
42586;SDS011;28216;53.362;-6.288;2023-06-22T00:24:32;5.90;;;3.72;;
42586;SDS011;28216;53.362;-6.288;2023-06-22T00:27:05;6.55;;;3.85;;
42586;SDS011;28216;53.362;-6.288;2023-06-22T00:29:31;4.97;;;3.60;;
42586;SDS011;28216;53.362;-6.288;2023-06-22T00:32:09;4.47;;;3.42;;
42586;SDS011;28216;53.362;-6.288;2023-06-22T00:34:35;5.00;;;3.70;;
42586;SDS011;28216;53.362;-6.288;2023-06-22T00:37:03;5.70;;;3.60;;
42586;SDS011;28216;53.362;-6.288;2023-06-22T00:39:38;5.57;;;3.85;;
42586;SDS011;28216;53.362;-6.288;2023-06-22T00:42:09;6.10;;;3.63;;
42586;SDS011;28216;53.362;-6.288;2023-06-22T00:44:40;4.18;;;3.75;;
42586;SDS011;28216;53.362;-6.288;2023-06-22T00:47:05;4.07;;;3.33;;
42586;SDS011;28216;53.362;-6.288;2023-06-22T00:49:36;4.15;;;3.70;;
42586;SDS011;28216;53.362;-6.288;2023-06-22T00:52:02;5.75;;;3.20;;
42586;SDS011;28216;53.362;-6.288;2023-06-22T00:54:28;6.15;;;3.75;;
42586;SDS011;28216;53.362;-6.288;2023-06-22T00:56:59;5.70;;;3.65;;
42586;SDS011;28216;53.362;-6.288;2023-06-22T00:59:27;4.35;;;3.40;;
42586;SDS011;28216;53.362;-6.288;2023-06-22T01:01:53;5.53;;;3.50;;
42586;SDS011;28216;53.362;-6.288;2023-06-22T01:04:23;4.32;;;3.40;;
42586;SDS011;28216;53.362;-6.288;2023-06-22T01:10:19;6.63;;;3.60;;
42586;SDS011;28216;53.362;-6.288;2023-06-22T01:13:10;4.82;;;3.35;;
42586;SDS011;28216;53.362;-6.288;2023-06-22T01:16:00;5.30;;;3.72;;
42586;SDS011;28216;53.362;-6.288;2023-06-22T01:18:42;5.80;;;3.58;;
42586;SDS011;28216;53.362;-6.288;2023-06-22T01:21:16;3.85;;;3.40;;
42586;SDS011;28216;53.362;-6.288;2023-06-22T01:26:43;5.55;;;3.60;;
42586;SDS011;28216;53.362;-6.288;2023-06-22T01:29:27;6.03;;;3.47;;
42586;SDS011;28216;53.362;-6.288;2023-06-22T01:31:56;4.22;;;3.35;;
42586;SDS011;28216;53.362;-6.288;2023-06-22T01:34:35;4.40;;;3.60;;
42586;SDS011;28216;53.362;-6.288;2023-06-22T01:37:04;6.07;;;4.25;;
42586;SDS011;28216;53.362;-6.288;2023-06-22T01:39:31;5.72;;;3.38;;
42586;SDS011;28216;53.362;-6.288;2023-06-22T01:42:13;7.97;;;3.70;;
42586;SDS011;28216;53.362;-6.288;2023-06-22T01:44:42;5.28;;;3.00;;
42586;SDS011;28216;53.362;-6.288;2023-06-22T01:47:10;4.90;;;3.40;;
42586;SDS011;28216;53.362;-6.288;2023-06-22T01:49:39;5.13;;;3.58;;
42586;SDS011;28216;53.362;-6.288;2023-06-22T01:52:08;5.90;;;3.38;;
42586;SDS011;28216;53.362;-6.288;2023-06-22T01:54:38;6.75;;;3.50;;
42586;SDS011;28216;53.362;-6.288;2023-06-22T01:57:05;4.05;;;3.65;;
42586;SDS011;28216;53.362;-6.288;2023-06-22T02:02:06;5.97;;;4.07;;
42586;SDS011;28216;53.362;-6.288;2023-06-22T02:07:32;5.63;;;3.70;;
42586;SDS011;28216;53.362;-6.288;2023-06-22T02:10:03;8.43;;;3.88;;
42586;SDS011;28216;53.362;-6.288;2023-06-22T02:12:47;4.75;;;3.80;;
42586;SDS011;28216;53.362;-6.288;2023-06-22T02:15:13;6.38;;;3.88;;
42586;SDS011;28216;53.362;-6.288;2023-06-22T02:17:47;6.10;;;3.67;;
42586;SDS011;28216;53.362;-6.288;2023-06-22T02:20:14;5.13;;;3.63;;
42586;SDS011;28216;53.362;-6.288;2023-06-22T02:22:39;8.18;;;3.70;;
42586;SDS011;28216;53.362;-6.288;2023-06-22T02:25:05;6.43;;;3.78;;
42586;SDS011;28216;53.362;-6.288;2023-06-22T02:27:31;4.38;;;3.63;;
42586;SDS011;28216;53.362;-6.288;2023-06-22T02:29:57;4.43;;;3.90;;
42586;SDS011;28216;53.362;-6.288;2023-06-22T02:32:33;5.88;;;3.70;;
42586;SDS011;28216;53.362;-6.288;2023-06-22T02:34:59;5.07;;;3.70;;
42586;SDS011;28216;53.362;-6.288;2023-06-22T02:37:35;6.10;;;3.88;;
42586;SDS011;28216;53.362;-6.288;2023-06-22T02:40:04;5.80;;;3.90;;
42586;SDS011;28216;53.362;-6.288;2023-06-22T02:42:34;4.47;;;3.70;;
42586;SDS011;28216;53.362;-6.288;2023-06-22T02:45:05;4.82;;;4.03;;
42586;SDS011;28216;53.362;-6.288;2023-06-22T02:47:42;5.80;;;3.85;;
42586;SDS011;28216;53.362;-6.288;2023-06-22T02:50:08;5.10;;;3.88;;
42586;SDS011;28216;53.362;-6.288;2023-06-22T02:52:36;6.82;;;3.88;;
42586;SDS011;28216;53.362;-6.288;2023-06-22T02:55:05;6.93;;;4.35;;
42586;SDS011;28216;53.362;-6.288;2023-06-22T02:57:32;7.90;;;4.43;;
42586;SDS011;28216;53.362;-6.288;2023-06-22T03:00:01;5.22;;;4.03;;
42586;SDS011;28216;53.362;-6.288;2023-06-22T03:02:44;6.28;;;3.83;;
42586;SDS011;28216;53.362;-6.288;2023-06-22T03:05:11;9.07;;;4.60;;
42586;SDS011;28216;53.362;-6.288;2023-06-22T03:07:54;6.35;;;4.40;;
42586;SDS011;28216;53.362;-6.288;2023-06-22T03:12:52;5.28;;;4.00;;
42586;SDS011;28216;53.362;-6.288;2023-06-22T03:15:18;6.35;;;4.45;;
42586;SDS011;28216;53.362;-6.288;2023-06-22T03:17:45;6.95;;;4.18;;
42586;SDS011;28216;53.362;-6.288;2023-06-22T03:20:12;6.90;;;4.22;;
42586;SDS011;28216;53.362;-6.288;2023-06-22T03:22:40;6.28;;;4.43;;
42586;SDS011;28216;53.362;-6.288;2023-06-22T03:25:09;7.78;;;4.20;;
42586;SDS011;28216;53.362;-6.288;2023-06-22T03:27:41;8.25;;;4.03;;
42586;SDS011;28216;53.362;-6.288;2023-06-22T03:30:07;6.85;;;4.22;;
42586;SDS011;28216;53.362;-6.288;2023-06-22T03:32:40;5.28;;;4.38;;
42586;SDS011;28216;53.362;-6.288;2023-06-22T03:35:09;6.88;;;4.35;;
42586;SDS011;28216;53.362;-6.288;2023-06-22T03:37:35;7.03;;;4.03;;
42586;SDS011;28216;53.362;-6.288;2023-06-22T03:40:12;6.30;;;4.10;;
42586;SDS011;28216;53.362;-6.288;2023-06-22T03:42:47;5.00;;;4.47;;
42586;SDS011;28216;53.362;-6.288;2023-06-22T03:45:14;8.73;;;4.70;;
42586;SDS011;28216;53.362;-6.288;2023-06-22T03:47:40;8.15;;;4.30;;
42586;SDS011;28216;53.362;-6.288;2023-06-22T03:50:11;6.35;;;4.43;;
42586;SDS011;28216;53.362;-6.288;2023-06-22T03:52:47;5.90;;;4.47;;
42586;SDS011;28216;53.362;-6.288;2023-06-22T03:55:21;5.10;;;4.10;;
42586;SDS011;28216;53.362;-6.288;2023-06-22T03:57:49;7.43;;;4.65;;
42586;SDS011;28216;53.362;-6.288;2023-06-22T04:00:15;6.15;;;4.50;;
42586;SDS011;28216;53.362;-6.288;2023-06-22T04:02:45;5.47;;;4.45;;
42586;SDS011;28216;53.362;-6.288;2023-06-22T04:05:13;6.90;;;4.38;;
42586;SDS011;28216;53.362;-6.288;2023-06-22T04:07:44;7.43;;;4.07;;
42586;SDS011;28216;53.362;-6.288;2023-06-22T04:10:17;7.20;;;4.65;;
42586;SDS011;28216;53.362;-6.288;2023-06-22T04:12:43;5.65;;;4.32;;
42586;SDS011;28216;53.362;-6.288;2023-06-22T04:15:20;6.43;;;4.72;;
42586;SDS011;28216;53.362;-6.288;2023-06-22T04:17:46;5.82;;;4.40;;
42586;SDS011;28216;53.362;-6.288;2023-06-22T04:20:11;6.95;;;4.53;;
42586;SDS011;28216;53.362;-6.288;2023-06-22T04:22:40;6.32;;;4.55;;
42586;SDS011;28216;53.362;-6.288;2023-06-22T04:25:08;6.60;;;4.82;;
42586;SDS011;28216;53.362;-6.288;2023-06-22T04:27:38;6.10;;;4.80;;
42586;SDS011;28216;53.362;-6.288;2023-06-22T04:30:14;6.20;;;4.53;;
42586;SDS011;28216;53.362;-6.288;2023-06-22T04:32:45;7.65;;;4.72;;
42586;SDS011;28216;53.362;-6.288;2023-06-22T04:35:21;6.28;;;4.38;;
42586;SDS011;28216;53.362;-6.288;2023-06-22T04:37:49;7.15;;;5.30;;
42586;SDS011;28216;53.362;-6.288;2023-06-22T04:40:20;5.38;;;4.43;;
42586;SDS011;28216;53.362;-6.288;2023-06-22T04:42:47;6.47;;;4.70;;
42586;SDS011;28216;53.362;-6.288;2023-06-22T04:45:18;7.20;;;5.10;;
42586;SDS011;28216;53.362;-6.288;2023-06-22T04:47:44;7.80;;;4.70;;
42586;SDS011;28216;53.362;-6.288;2023-06-22T04:50:12;5.55;;;4.88;;
42586;SDS011;28216;53.362;-6.288;2023-06-22T04:52:48;5.40;;;4.75;;
42586;SDS011;28216;53.362;-6.288;2023-06-22T04:55:14;8.07;;;5.15;;
42586;SDS011;28216;53.362;-6.288;2023-06-22T04:57:44;6.88;;;5.00;;
42586;SDS011;28216;53.362;-6.288;2023-06-22T05:00:21;6.15;;;4.80;;
42586;SDS011;28216;53.362;-6.288;2023-06-22T05:02:48;5.32;;;4.72;;
42586;SDS011;28216;53.362;-6.288;2023-06-22T05:05:14;8.95;;;4.82;;
42586;SDS011;28216;53.362;-6.288;2023-06-22T05:07:43;7.18;;;5.20;;
42586;SDS011;28216;53.362;-6.288;2023-06-22T05:10:18;5.93;;;4.60;;
42586;SDS011;28216;53.362;-6.288;2023-06-22T05:12:44;7.10;;;5.25;;
42586;SDS011;28216;53.362;-6.288;2023-06-22T05:15:24;7.30;;;5.57;;
42586;SDS011;28216;53.362;-6.288;2023-06-22T05:18:03;8.07;;;5.82;;
42586;SDS011;28216;53.362;-6.288;2023-06-22T05:20:30;7.72;;;5.93;;
42586;SDS011;28216;53.362;-6.288;2023-06-22T05:22:56;7.75;;;6.80;;
42586;SDS011;28216;53.362;-6.288;2023-06-22T05:25:21;10.65;;;7.30;;
42586;SDS011;28216;53.362;-6.288;2023-06-22T05:27:50;13.85;;;8.32;;
42586;SDS011;28216;53.362;-6.288;2023-06-22T05:30:18;10.05;;;7.30;;
42586;SDS011;28216;53.362;-6.288;2023-06-22T05:32:46;10.10;;;8.27;;
42586;SDS011;28216;53.362;-6.288;2023-06-22T05:35:11;9.52;;;8.15;;
42586;SDS011;28216;53.362;-6.288;2023-06-22T05:37:37;11.07;;;8.38;;
42586;SDS011;28216;53.362;-6.288;2023-06-22T05:40:03;10.20;;;7.78;;
42586;SDS011;28216;53.362;-6.288;2023-06-22T05:42:29;9.45;;;7.13;;
42586;SDS011;28216;53.362;-6.288;2023-06-22T05:44:58;10.82;;;7.82;;
42586;SDS011;28216;53.362;-6.288;2023-06-22T05:47:26;8.95;;;7.88;;
42586;SDS011;28216;53.362;-6.288;2023-06-22T05:49:54;10.73;;;7.32;;
42586;SDS011;28216;53.362;-6.288;2023-06-22T05:52:23;8.77;;;6.93;;
42586;SDS011;28216;53.362;-6.288;2023-06-22T05:54:51;15.07;;;7.20;;
42586;SDS011;28216;53.362;-6.288;2023-06-22T05:57:19;12.50;;;7.18;;
42586;SDS011;28216;53.362;-6.288;2023-06-22T05:59:46;10.70;;;6.47;;
42586;SDS011;28216;53.362;-6.288;2023-06-22T06:02:14;8.45;;;6.15;;
42586;SDS011;28216;53.362;-6.288;2023-06-22T06:04:40;8.07;;;5.57;;
42586;SDS011;28216;53.362;-6.288;2023-06-22T06:07:15;7.30;;;5.90;;
42586;SDS011;28216;53.362;-6.288;2023-06-22T06:09:43;7.75;;;5.40;;
42586;SDS011;28216;53.362;-6.288;2023-06-22T06:12:08;7.07;;;5.70;;
42586;SDS011;28216;53.362;-6.288;2023-06-22T06:14:34;6.85;;;5.82;;
42586;SDS011;28216;53.362;-6.288;2023-06-22T06:23:31;7.40;;;6.07;;
42586;SDS011;28216;53.362;-6.288;2023-06-22T06:25:56;8.57;;;5.75;;
42586;SDS011;28216;53.362;-6.288;2023-06-22T06:28:25;7.65;;;6.05;;
42586;SDS011;28216;53.362;-6.288;2023-06-22T06:30:50;5.95;;;5.18;;
42586;SDS011;28216;53.362;-6.288;2023-06-22T06:33:17;7.75;;;5.68;;
42586;SDS011;28216;53.362;-6.288;2023-06-22T06:35:42;7.97;;;5.63;;
42586;SDS011;28216;53.362;-6.288;2023-06-22T06:38:11;8.18;;;5.45;;
42586;SDS011;28216;53.362;-6.288;2023-06-22T06:40:36;9.90;;;6.10;;
42586;SDS011;28216;53.362;-6.288;2023-06-22T06:43:02;7.57;;;5.05;;
42586;SDS011;28216;53.362;-6.288;2023-06-22T06:45:30;5.97;;;5.10;;
42586;SDS011;28216;53.362;-6.288;2023-06-22T06:48:05;8.25;;;5.13;;
42586;SDS011;28216;53.362;-6.288;2023-06-22T06:50:48;6.72;;;5.63;;
42586;SDS011;28216;53.362;-6.288;2023-06-22T06:53:34;8.82;;;5.78;;
42586;SDS011;28216;53.362;-6.288;2023-06-22T06:56:03;8.63;;;5.35;;
42586;SDS011;28216;53.362;-6.288;2023-06-22T06:58:34;8.32;;;5.22;;
42586;SDS011;28216;53.362;-6.288;2023-06-22T07:03:37;5.43;;;4.90;;
42586;SDS011;28216;53.362;-6.288;2023-06-22T07:06:03;9.55;;;5.43;;
42586;SDS011;28216;53.362;-6.288;2023-06-22T07:08:29;7.10;;;5.43;;
42586;SDS011;28216;53.362;-6.288;2023-06-22T07:13:38;7.70;;;5.80;;
42586;SDS011;28216;53.362;-6.288;2023-06-22T07:16:04;5.72;;;5.07;;
42586;SDS011;28216;53.362;-6.288;2023-06-22T07:18:40;6.07;;;5.20;;
42586;SDS011;28216;53.362;-6.288;2023-06-22T07:21:13;6.95;;;5.32;;
42586;SDS011;28216;53.362;-6.288;2023-06-22T07:23:43;5.97;;;5.47;;
42586;SDS011;28216;53.362;-6.288;2023-06-22T07:26:09;7.38;;;5.38;;
42586;SDS011;28216;53.362;-6.288;2023-06-22T07:28:39;6.78;;;4.95;;
42586;SDS011;28216;53.362;-6.288;2023-06-22T07:31:13;8.13;;;5.50;;
42586;SDS011;28216;53.362;-6.288;2023-06-22T07:33:43;4.85;;;4.10;;
42586;SDS011;28216;53.362;-6.288;2023-06-22T07:36:21;6.03;;;4.50;;
42586;SDS011;28216;53.362;-6.288;2023-06-22T07:38:49;4.63;;;4.00;;
42586;SDS011;28216;53.362;-6.288;2023-06-22T07:41:15;6.40;;;4.30;;
42586;SDS011;28216;53.362;-6.288;2023-06-22T07:43:44;5.97;;;4.32;;
42586;SDS011;28216;53.362;-6.288;2023-06-22T07:46:12;5.30;;;4.40;;
42586;SDS011;28216;53.362;-6.288;2023-06-22T07:48:41;5.30;;;4.40;;
42586;SDS011;28216;53.362;-6.288;2023-06-22T07:51:09;5.10;;;4.50;;
42586;SDS011;28216;53.362;-6.288;2023-06-22T07:53:40;6.65;;;4.70;;
42586;SDS011;28216;53.362;-6.288;2023-06-22T07:56:06;6.90;;;4.35;;
42586;SDS011;28216;53.362;-6.288;2023-06-22T07:58:40;6.45;;;4.35;;
42586;SDS011;28216;53.362;-6.288;2023-06-22T08:01:05;6.38;;;3.70;;
42586;SDS011;28216;53.362;-6.288;2023-06-22T08:03:37;4.50;;;3.90;;
42586;SDS011;28216;53.362;-6.288;2023-06-22T08:06:02;5.22;;;3.80;;
42586;SDS011;28216;53.362;-6.288;2023-06-22T08:08:28;5.82;;;4.18;;
42586;SDS011;28216;53.362;-6.288;2023-06-22T08:11:19;5.00;;;3.60;;
42586;SDS011;28216;53.362;-6.288;2023-06-22T08:13:47;4.82;;;3.78;;
42586;SDS011;28216;53.362;-6.288;2023-06-22T08:16:13;3.75;;;3.35;;
42586;SDS011;28216;53.362;-6.288;2023-06-22T08:18:41;6.68;;;4.00;;
42586;SDS011;28216;53.362;-6.288;2023-06-22T08:24:05;5.30;;;3.40;;
42586;SDS011;28216;53.362;-6.288;2023-06-22T08:26:32;4.88;;;3.35;;
42586;SDS011;28216;53.362;-6.288;2023-06-22T08:29:10;4.07;;;3.25;;
42586;SDS011;28216;53.362;-6.288;2023-06-22T08:31:40;6.07;;;3.95;;
42586;SDS011;28216;53.362;-6.288;2023-06-22T08:34:09;4.70;;;3.47;;
42586;SDS011;28216;53.362;-6.288;2023-06-22T08:36:39;6.38;;;3.75;;
42586;SDS011;28216;53.362;-6.288;2023-06-22T08:39:12;6.82;;;3.40;;
42586;SDS011;28216;53.362;-6.288;2023-06-22T08:45:02;5.68;;;3.72;;
42586;SDS011;28216;53.362;-6.288;2023-06-22T08:47:43;4.07;;;3.55;;
42586;SDS011;28216;53.362;-6.288;2023-06-22T08:50:15;5.15;;;3.72;;
42586;SDS011;28216;53.362;-6.288;2023-06-22T08:52:41;3.80;;;3.30;;
42586;SDS011;28216;53.362;-6.288;2023-06-22T08:55:07;5.20;;;4.60;;
42586;SDS011;28216;53.362;-6.288;2023-06-22T08:57:34;6.70;;;3.72;;
42586;SDS011;28216;53.362;-6.288;2023-06-22T08:59:59;8.07;;;4.43;;
42586;SDS011;28216;53.362;-6.288;2023-06-22T09:02:32;4.60;;;4.10;;
42586;SDS011;28216;53.362;-6.288;2023-06-22T09:04:58;5.70;;;4.30;;
42586;SDS011;28216;53.362;-6.288;2023-06-22T09:07:26;6.57;;;4.07;;
42586;SDS011;28216;53.362;-6.288;2023-06-22T09:09:55;5.25;;;4.20;;
42586;SDS011;28216;53.362;-6.288;2023-06-22T09:12:23;5.28;;;3.67;;
42586;SDS011;28216;53.362;-6.288;2023-06-22T09:14:52;5.10;;;3.67;;
42586;SDS011;28216;53.362;-6.288;2023-06-22T09:17:24;4.18;;;3.78;;
42586;SDS011;28216;53.362;-6.288;2023-06-22T09:19:53;8.57;;;4.57;;
42586;SDS011;28216;53.362;-6.288;2023-06-22T09:29:07;7.57;;;4.38;;
42586;SDS011;28216;53.362;-6.288;2023-06-22T09:37:33;7.32;;;4.07;;
42586;SDS011;28216;53.362;-6.288;2023-06-22T09:39:58;4.95;;;4.03;;
42586;SDS011;28216;53.362;-6.288;2023-06-22T09:43:02;6.80;;;4.30;;
42586;SDS011;28216;53.362;-6.288;2023-06-22T09:45:48;6.80;;;3.70;;
42586;SDS011;28216;53.362;-6.288;2023-06-22T09:48:21;4.70;;;3.88;;
42586;SDS011;28216;53.362;-6.288;2023-06-22T09:53:24;7.07;;;4.00;;
42586;SDS011;28216;53.362;-6.288;2023-06-22T09:58:33;7.72;;;3.80;;
42586;SDS011;28216;53.362;-6.288;2023-06-22T10:00:58;6.32;;;3.67;;
42586;SDS011;28216;53.362;-6.288;2023-06-22T10:03:26;4.40;;;4.00;;
42586;SDS011;28216;53.362;-6.288;2023-06-22T10:05:52;5.28;;;3.90;;
42586;SDS011;28216;53.362;-6.288;2023-06-22T10:08:21;5.90;;;3.58;;
42586;SDS011;28216;53.362;-6.288;2023-06-22T10:10:56;4.95;;;3.55;;
42586;SDS011;28216;53.362;-6.288;2023-06-22T10:13:39;6.20;;;3.75;;
42586;SDS011;28216;53.362;-6.288;2023-06-22T10:26:03;7.80;;;3.65;;
42586;SDS011;28216;53.362;-6.288;2023-06-22T10:29:13;9.93;;;3.60;;
42586;SDS011;28216;53.362;-6.288;2023-06-22T10:41:42;6.63;;;3.42;;
42586;SDS011;28216;53.362;-6.288;2023-06-22T10:58:24;5.78;;;3.30;;
42586;SDS011;28216;53.362;-6.288;2023-06-22T11:00:50;5.10;;;3.20;;
42586;SDS011;28216;53.362;-6.288;2023-06-22T11:03:24;4.60;;;3.30;;
42586;SDS011;28216;53.362;-6.288;2023-06-22T11:05:54;7.03;;;3.40;;
42586;SDS011;28216;53.362;-6.288;2023-06-22T11:08:23;6.47;;;3.60;;
42586;SDS011;28216;53.362;-6.288;2023-06-22T11:11:09;7.88;;;3.65;;
42586;SDS011;28216;53.362;-6.288;2023-06-22T11:13:45;5.70;;;3.55;;
42586;SDS011;28216;53.362;-6.288;2023-06-22T11:16:20;6.35;;;4.00;;
42586;SDS011;28216;53.362;-6.288;2023-06-22T11:18:55;6.60;;;4.00;;
42586;SDS011;28216;53.362;-6.288;2023-06-22T11:21:33;4.43;;;3.40;;
42586;SDS011;28216;53.362;-6.288;2023-06-22T11:24:01;5.72;;;3.28;;
42586;SDS011;28216;53.362;-6.288;2023-06-22T11:29:52;6.60;;;3.20;;
42586;SDS011;28216;53.362;-6.288;2023-06-22T11:35:53;4.90;;;3.28;;
42586;SDS011;28216;53.362;-6.288;2023-06-22T11:52:11;4.00;;;3.17;;
42586;SDS011;28216;53.362;-6.288;2023-06-22T11:54:41;5.53;;;3.72;;
42586;SDS011;28216;53.362;-6.288;2023-06-22T11:57:10;4.78;;;3.25;;
42586;SDS011;28216;53.362;-6.288;2023-06-22T11:59:41;5.65;;;3.70;;
42586;SDS011;28216;53.362;-6.288;2023-06-22T12:02:06;7.88;;;3.45;;
42586;SDS011;28216;53.362;-6.288;2023-06-22T12:04:34;5.53;;;4.07;;
42586;SDS011;28216;53.362;-6.288;2023-06-22T12:07:05;4.93;;;4.03;;
42586;SDS011;28216;53.362;-6.288;2023-06-22T12:16:32;5.10;;;3.47;;
42586;SDS011;28216;53.362;-6.288;2023-06-22T12:26:09;5.10;;;3.80;;
42586;SDS011;28216;53.362;-6.288;2023-06-22T12:28:38;3.42;;;2.97;;
42586;SDS011;28216;53.362;-6.288;2023-06-22T12:31:08;4.63;;;3.38;;
42586;SDS011;28216;53.362;-6.288;2023-06-22T12:33:39;4.05;;;3.00;;
42586;SDS011;28216;53.362;-6.288;2023-06-22T12:36:09;4.53;;;3.15;;
42586;SDS011;28216;53.362;-6.288;2023-06-22T12:38:39;8.45;;;4.95;;
42586;SDS011;28216;53.362;-6.288;2023-06-22T12:41:07;5.85;;;4.70;;
42586;SDS011;28216;53.362;-6.288;2023-06-22T12:43:38;7.45;;;4.75;;
42586;SDS011;28216;53.362;-6.288;2023-06-22T12:49:01;5.32;;;4.40;;
42586;SDS011;28216;53.362;-6.288;2023-06-22T12:51:33;6.03;;;4.93;;
42586;SDS011;28216;53.362;-6.288;2023-06-22T12:53:59;6.55;;;4.53;;
42586;SDS011;28216;53.362;-6.288;2023-06-22T12:56:27;5.10;;;4.00;;
42586;SDS011;28216;53.362;-6.288;2023-06-22T12:58:57;5.03;;;3.90;;
42586;SDS011;28216;53.362;-6.288;2023-06-22T13:01:32;5.10;;;3.95;;
42586;SDS011;28216;53.362;-6.288;2023-06-22T13:04:06;5.25;;;4.75;;
42586;SDS011;28216;53.362;-6.288;2023-06-22T13:06:34;6.40;;;3.72;;
42586;SDS011;28216;53.362;-6.288;2023-06-22T13:09:02;5.72;;;3.90;;
42586;SDS011;28216;53.362;-6.288;2023-06-22T13:11:30;5.97;;;4.80;;
42586;SDS011;28216;53.362;-6.288;2023-06-22T13:14:16;7.50;;;5.72;;
42586;SDS011;28216;53.362;-6.288;2023-06-22T13:16:49;7.82;;;5.18;;
42586;SDS011;28216;53.362;-6.288;2023-06-22T13:19:15;6.68;;;5.97;;
42586;SDS011;28216;53.362;-6.288;2023-06-22T13:21:43;7.40;;;5.57;;
42586;SDS011;28216;53.362;-6.288;2023-06-22T13:24:11;6.20;;;5.57;;
42586;SDS011;28216;53.362;-6.288;2023-06-22T13:26:40;7.32;;;6.57;;
42586;SDS011;28216;53.362;-6.288;2023-06-22T13:29:05;8.77;;;7.53;;
42586;SDS011;28216;53.362;-6.288;2023-06-22T13:31:34;7.90;;;6.38;;
42586;SDS011;28216;53.362;-6.288;2023-06-22T13:34:02;7.03;;;6.35;;
42586;SDS011;28216;53.362;-6.288;2023-06-22T13:36:27;9.57;;;6.55;;
42586;SDS011;28216;53.362;-6.288;2023-06-22T13:38:55;9.43;;;6.70;;
42586;SDS011;28216;53.362;-6.288;2023-06-22T13:41:30;6.72;;;5.40;;
42586;SDS011;28216;53.362;-6.288;2023-06-22T13:43:57;9.27;;;5.72;;
42586;SDS011;28216;53.362;-6.288;2023-06-22T13:46:22;9.10;;;5.78;;
42586;SDS011;28216;53.362;-6.288;2023-06-22T13:48:48;7.00;;;6.20;;
42586;SDS011;28216;53.362;-6.288;2023-06-22T13:51:13;8.32;;;5.90;;
42586;SDS011;28216;53.362;-6.288;2023-06-22T13:53:39;8.23;;;6.35;;
42586;SDS011;28216;53.362;-6.288;2023-06-22T13:56:07;6.90;;;6.07;;
42586;SDS011;28216;53.362;-6.288;2023-06-22T13:58:38;7.50;;;6.13;;
42586;SDS011;28216;53.362;-6.288;2023-06-22T14:01:04;7.45;;;5.55;;
42586;SDS011;28216;53.362;-6.288;2023-06-22T14:03:37;7.95;;;5.90;;
42586;SDS011;28216;53.362;-6.288;2023-06-22T14:06:11;6.35;;;5.55;;
42586;SDS011;28216;53.362;-6.288;2023-06-22T14:08:37;8.35;;;5.63;;
42586;SDS011;28216;53.362;-6.288;2023-06-22T14:11:03;9.93;;;7.90;;
42586;SDS011;28216;53.362;-6.288;2023-06-22T14:13:38;11.35;;;8.35;;
42586;SDS011;28216;53.362;-6.288;2023-06-22T14:16:12;12.25;;;7.18;;
42586;SDS011;28216;53.362;-6.288;2023-06-22T14:19:06;7.53;;;6.40;;
42586;SDS011;28216;53.362;-6.288;2023-06-22T14:21:36;9.45;;;8.07;;
42586;SDS011;28216;53.362;-6.288;2023-06-22T14:24:04;9.20;;;6.80;;
42586;SDS011;28216;53.362;-6.288;2023-06-22T14:26:29;12.35;;;6.68;;
42586;SDS011;28216;53.362;-6.288;2023-06-22T14:28:58;7.97;;;6.90;;
42586;SDS011;28216;53.362;-6.288;2023-06-22T14:31:23;10.30;;;7.68;;
42586;SDS011;28216;53.362;-6.288;2023-06-22T14:33:49;8.27;;;7.10;;
42586;SDS011;28216;53.362;-6.288;2023-06-22T14:36:17;8.57;;;6.55;;
42586;SDS011;28216;53.362;-6.288;2023-06-22T14:38:44;12.32;;;6.57;;
42586;SDS011;28216;53.362;-6.288;2023-06-22T14:41:14;11.90;;;7.22;;
42586;SDS011;28216;53.362;-6.288;2023-06-22T14:43:49;8.63;;;6.15;;
42586;SDS011;28216;53.362;-6.288;2023-06-22T14:46:15;7.43;;;6.68;;
42586;SDS011;28216;53.362;-6.288;2023-06-22T14:48:51;9.27;;;6.07;;
42586;SDS011;28216;53.362;-6.288;2023-06-22T14:51:17;7.22;;;6.35;;
42586;SDS011;28216;53.362;-6.288;2023-06-22T14:53:45;9.27;;;6.35;;
42586;SDS011;28216;53.362;-6.288;2023-06-22T14:56:11;9.15;;;7.20;;
42586;SDS011;28216;53.362;-6.288;2023-06-22T14:58:40;7.72;;;6.90;;
42586;SDS011;28216;53.362;-6.288;2023-06-22T15:01:10;9.00;;;7.28;;
42586;SDS011;28216;53.362;-6.288;2023-06-22T15:03:38;9.93;;;7.07;;
42586;SDS011;28216;53.362;-6.288;2023-06-22T15:16:15;7.18;;;6.53;;
42586;SDS011;28216;53.362;-6.288;2023-06-22T15:18:41;8.60;;;7.55;;
42586;SDS011;28216;53.362;-6.288;2023-06-22T15:21:06;7.78;;;6.80;;
42586;SDS011;28216;53.362;-6.288;2023-06-22T15:23:33;6.68;;;4.93;;
42586;SDS011;28216;53.362;-6.288;2023-06-22T15:26:00;5.20;;;4.70;;
42586;SDS011;28216;53.362;-6.288;2023-06-22T15:28:31;4.75;;;4.25;;
42586;SDS011;28216;53.362;-6.288;2023-06-22T15:30:58;5.10;;;4.65;;
42586;SDS011;28216;53.362;-6.288;2023-06-22T15:33:26;4.10;;;3.80;;
42586;SDS011;28216;53.362;-6.288;2023-06-22T15:39:36;9.48;;;3.90;;
42586;SDS011;28216;53.362;-6.288;2023-06-22T15:42:15;5.50;;;3.03;;
42586;SDS011;28216;53.362;-6.288;2023-06-22T15:44:41;3.75;;;3.40;;
42586;SDS011;28216;53.362;-6.288;2023-06-22T15:47:07;3.67;;;3.10;;
42586;SDS011;28216;53.362;-6.288;2023-06-22T15:49:52;8.10;;;3.35;;
42586;SDS011;28216;53.362;-6.288;2023-06-22T15:52:20;4.63;;;3.38;;
42586;SDS011;28216;53.362;-6.288;2023-06-22T15:54:49;5.63;;;3.60;;
42586;SDS011;28216;53.362;-6.288;2023-06-22T15:57:26;3.40;;;3.10;;
42586;SDS011;28216;53.362;-6.288;2023-06-22T15:59:52;3.47;;;3.17;;
42586;SDS011;28216;53.362;-6.288;2023-06-22T16:02:28;4.45;;;3.30;;
42586;SDS011;28216;53.362;-6.288;2023-06-22T16:04:54;3.50;;;3.20;;
42586;SDS011;28216;53.362;-6.288;2023-06-22T16:07:31;5.35;;;3.30;;
42586;SDS011;28216;53.362;-6.288;2023-06-22T16:10:12;4.88;;;3.80;;
42586;SDS011;28216;53.362;-6.288;2023-06-22T16:12:43;5.93;;;4.30;;
42586;SDS011;28216;53.362;-6.288;2023-06-22T16:15:11;4.32;;;3.92;;
42586;SDS011;28216;53.362;-6.288;2023-06-22T16:17:40;5.55;;;4.65;;
42586;SDS011;28216;53.362;-6.288;2023-06-22T16:20:06;4.40;;;4.00;;
42586;SDS011;28216;53.362;-6.288;2023-06-22T16:22:40;4.30;;;3.83;;
42586;SDS011;28216;53.362;-6.288;2023-06-22T16:25:09;4.22;;;3.83;;
42586;SDS011;28216;53.362;-6.288;2023-06-22T16:27:37;5.70;;;5.13;;
42586;SDS011;28216;53.362;-6.288;2023-06-22T16:30:08;6.35;;;5.30;;
42586;SDS011;28216;53.362;-6.288;2023-06-22T16:32:34;5.93;;;5.32;;
42586;SDS011;28216;53.362;-6.288;2023-06-22T16:37:56;4.40;;;3.85;;
42586;SDS011;28216;53.362;-6.288;2023-06-22T16:43:39;5.20;;;4.70;;
42586;SDS011;28216;53.362;-6.288;2023-06-22T16:49:22;4.93;;;4.43;;
42586;SDS011;28216;53.362;-6.288;2023-06-22T16:52:13;4.72;;;3.83;;
42586;SDS011;28216;53.362;-6.288;2023-06-22T16:54:45;4.88;;;3.75;;
42586;SDS011;28216;53.362;-6.288;2023-06-22T16:57:23;4.90;;;4.40;;
42586;SDS011;28216;53.362;-6.288;2023-06-22T17:00:06;4.80;;;4.30;;
42586;SDS011;28216;53.362;-6.288;2023-06-22T17:02:43;6.00;;;5.38;;
42586;SDS011;28216;53.362;-6.288;2023-06-22T17:05:25;6.95;;;6.25;;
42586;SDS011;28216;53.362;-6.288;2023-06-22T17:10:33;7.95;;;7.15;;
42586;SDS011;28216;53.362;-6.288;2023-06-22T17:13:00;8.43;;;7.50;;
42586;SDS011;28216;53.362;-6.288;2023-06-22T17:15:33;11.27;;;10.07;;
42586;SDS011;28216;53.362;-6.288;2023-06-22T17:18:06;15.13;;;10.50;;
42586;SDS011;28216;53.362;-6.288;2023-06-22T17:20:32;12.95;;;10.43;;